Latest Weather Observations for Ballina

IDN60801

Issued at 9:33 am EDT Thursday 5 March 2015 (issued every 30 minutes, with the page automatically refreshed every 10 minutes)

About weather observations | Map of weather stations | Latest weather observations for NSW | Other Formats
Station Details ID: 058198 Name: BALLINA AIRPORT AWS Lat: -28.84 Lon: 153.56 Height: 1.3 m
Data from the previous 72 hours. | See also: Recent months at Ballina
Date/Time
EDT
Temp
°C
App
Temp
°C
Dew
Point
Rel
Hum
%
Delta-T
°C
Wind Press
QNH
hPa
Press
MSL
hPa
Rain
since 9 am
mm
Dir
 
Spd
km/h
Gust
km/h
Spd
kts
Gust
kts
05/09:30am 28.3 31.1 21.6 67 4.5 NNW 9 13 5 7 1006.9 1006.9 0.0
05/09:00am 27.0 30.4 22.0 74 3.4 NNE 7 13 4 7 1007.1 1007.1 0.0
05/08:30am 25.9 29.2 21.8 78 2.7 NNE 7 11 4 6 1007.1 1007.1 0.0
05/08:00am 23.9 26.9 20.8 83 2.0 N 6 9 3 5 1007.2 1007.2 0.0
05/07:30am 22.4 26.2 21.0 92 0.9 NW 2 6 1 3 1007.3 1007.3 0.0
05/07:00am 21.7 25.7 20.5 93 0.8 CALM 0 0 0 0 1006.9 1006.9 0.0
05/06:30am 22.0 26.0 20.6 92 0.9 CALM 0 0 0 0 1006.7 1006.7 0.0
05/06:00am 22.2 24.9 20.7 91 1.0 N 7 9 4 5 1006.4 1006.4 0.0
05/05:30am 22.5 25.0 21.0 91 1.0 N 9 13 5 7 1006.3 1006.3 0.0
05/05:00am 22.6 25.2 20.5 88 1.4 NW 7 9 4 5 1006.4 1006.4 0.0
05/04:30am 23.2 25.2 20.7 86 1.6 N 11 17 6 9 1006.3 1006.3 0.0
05/04:00am 23.4 24.7 20.9 86 1.6 N 15 20 8 11 1006.7 1006.7 0.0
05/03:30am 23.6 23.9 20.7 84 1.9 N 20 28 11 15 1007.0 1007.0 0.0
05/03:00am 23.8 23.7 20.7 83 2.0 N 22 32 12 17 1007.2 1007.2 0.0
05/02:30am 23.9 23.8 20.8 83 2.0 N 22 32 12 17 1007.7 1007.7 0.0
05/02:00am 24.0 23.9 20.7 82 2.2 N 22 39 12 21 1008.1 1008.1 0.0
05/01:30am 24.2 23.9 21.1 83 2.0 N 24 35 13 19 1008.4 1008.4 0.0
05/01:00am 24.2 25.0 21.3 84 1.9 N 19 32 10 17 1009.0 1009.0 0.0
05/12:30am 24.3 25.1 21.4 84 1.9 N 19 30 10 16 1009.7 1009.7 0.0
05/12:00am 24.6 24.5 21.5 83 2.1 N 24 32 13 17 1009.8 1009.8 0.0
 
Date/Time
EDT
Temp
°C
App
Temp
°C
Dew
Point
Rel
Hum
%
Delta-T
°C
Wind Press
QNH
hPa
Press
MSL
hPa
Rain
since 9 am
mm
Dir
 
Spd
km/h
Gust
km/h
Spd
kts
Gust
kts
04/11:30pm 24.5 24.7 21.4 83 2.0 N 22 32 12 17 1010.2 1010.2 0.0
04/11:00pm 24.5 25.1 21.4 83 2.0 N 20 30 11 16 1010.6 1010.6 0.0
04/10:30pm 24.4 25.3 21.5 84 1.9 NNE 19 30 10 16 1010.7 1010.7 0.0
04/10:00pm 24.5 25.7 21.4 83 2.0 N 17 22 9 12 1011.0 1011.0 0.0
04/09:30pm 24.4 25.8 21.1 82 2.2 N 15 19 8 10 1011.1 1011.1 0.0
04/09:00pm 24.7 25.6 20.8 79 2.6 NNE 17 22 9 12 1011.1 1011.1 0.0
04/08:30pm 24.7 25.1 20.6 78 2.7 NNE 19 30 10 16 1010.8 1010.8 0.0
04/08:00pm 24.7 25.3 20.2 76 2.9 NNE 17 26 9 14 1010.6 1010.6 0.0
04/07:30pm 24.8 25.2 19.8 74 3.2 NNE 17 26 9 14 1010.5 1010.5 0.0
04/07:00pm 25.5 25.4 19.6 70 3.8 NNE 19 26 10 14 1010.3 1010.3 0.0
04/06:30pm 26.2 26.5 20.3 70 3.9 NNE 19 26 10 14 1010.1 1010.1 0.0
04/06:00pm 26.8 27.0 20.2 67 4.3 NNE 19 24 10 13 1010.1 1010.1 0.0
04/05:30pm 27.3 27.1 20.6 67 4.4 NNE 22 35 12 19 1010.2 1010.2 0.0
04/05:00pm 27.7 27.0 20.3 64 4.9 NE 24 33 13 18 1010.3 1010.3 0.0
04/04:30pm 27.7 26.5 20.0 63 5.0 NE 26 37 14 20 1010.5 1010.5 0.0
04/04:00pm 27.9 26.2 19.9 61 5.2 NE 28 35 15 19 1010.8 1010.8 0.0
04/03:30pm 27.8 26.6 20.1 63 5.0 NE 26 35 14 19 1011.2 1011.2 0.0
04/03:00pm 28.3 27.5 20.8 63 5.0 NE 26 33 14 18 1011.6 1011.6 0.0
04/02:30pm 27.8 26.9 19.8 61 5.2 NE 24 33 13 18 1012.0 1012.0 0.0
04/02:00pm 27.9 27.0 19.9 61 5.2 NE 24 33 13 18 1012.5 1012.5 0.0
04/01:30pm 28.4 27.4 19.6 59 5.7 NE 24 30 13 16 1013.0 1013.0 0.0
04/01:00pm 28.3 28.0 20.3 62 5.3 NE 22 30 12 16 1013.3 1013.3 0.0
04/12:30pm 27.6 27.2 19.4 61 5.3 NE 20 26 11 14 1013.6 1013.6 0.0
04/12:00pm 28.8 30.7 22.1 67 4.5 NE 15 22 8 12 1013.9 1013.9 0.0
04/11:30am 28.3 29.8 20.6 63 5.1 NE 13 19 7 10 1014.2 1014.2 0.0
04/11:00am 26.4 27.6 18.3 61 5.1 NNW 9 17 5 9 1014.7 1014.7 0.0
04/10:30am 25.5 27.2 18.4 65 4.5 NW 7 11 4 6 1014.7 1014.7 0.0
04/10:00am 26.0 27.8 19.6 68 4.1 NW 9 13 5 7 1014.8 1014.8 0.0
04/09:30am 25.2 26.3 19.6 71 3.6 NNW 13 17 7 9 1014.7 1014.7 0.0
04/09:00am 23.9 26.3 20.0 79 2.5 NNW 7 9 4 5 1014.5 1014.5 0.0
04/08:30am 22.2 26.0 20.1 88 1.4 CALM 0 0 0 0 1014.2 1014.2 0.0
04/08:00am 20.7 23.0 19.4 92 0.8 W 6 7 3 4 1014.3 1014.3 0.0
04/07:30am 20.0 23.7 20.0 100 0.0 CALM 0 0 0 0 1014.1 1014.1 0.0
04/07:00am 18.4 21.3 18.2 99 0.1 CALM 0 0 0 0 1013.7 1013.7 0.0
04/06:30am 18.3 21.2 18.1 99 0.1 CALM 0 0 0 0 1013.3 1013.3 0.0
04/06:00am 18.8 22.0 18.8 100 0.0 CALM 0 0 0 0 1013.1 1013.1 0.0
04/05:30am 18.4 21.3 18.2 99 0.1 CALM 0 0 0 0 1013.1 1013.1 0.0
04/05:00am 18.2 21.0 18.0 99 0.1 CALM 0 0 0 0 1013.0 1013.0 0.0
04/04:30am 18.1 20.9 17.9 99 0.1 CALM 0 0 0 0 1013.0 1013.0 0.0
04/04:00am 18.5 21.4 18.3 99 0.1 CALM 0 0 0 0 1013.1 1013.1 0.0
04/03:30am 18.5 21.4 18.2 98 0.2 CALM 0 0 0 0 1013.5 1013.5 0.0
04/03:00am 18.4 21.3 18.1 98 0.2 CALM 0 0 0 0 1013.7 1013.7 0.0
04/02:30am 18.7 21.5 18.0 96 0.4 CALM 0 0 0 0 1014.0 1014.0 0.0
04/02:00am 18.9 21.8 18.2 96 0.4 CALM 0 0 0 0 1014.5 1014.5 0.0
04/01:30am 19.3 22.4 18.6 96 0.4 CALM 0 0 0 0 1015.0 1015.0 0.0
04/01:00am 19.8 23.1 19.1 96 0.4 CALM 0 0 0 0 1015.4 1015.4 0.0
04/12:30am 19.9 23.2 19.2 96 0.4 CALM 0 0 0 0 1015.6 1015.6 0.0
04/12:00am 20.0 23.4 19.3 96 0.4 CALM 0 0 0 0 1015.8 1015.8 0.0
 
Date/Time
EDT
Temp
°C
App
Temp
°C
Dew
Point
Rel
Hum
%
Delta-T
°C
Wind Press
QNH
hPa
Press
MSL
hPa
Rain
since 9 am
mm
Dir
 
Spd
km/h
Gust
km/h
Spd
kts
Gust
kts
03/11:30pm 20.6 24.2 19.8 95 0.5 CALM 0 0 0 0 1015.9 1015.9 0.0
03/11:00pm 20.6 24.2 19.8 95 0.5 CALM 0 0 0 0 1016.1 1016.1 0.0
03/10:30pm 20.8 24.4 19.8 94 0.6 CALM 0 0 0 0 1016.2 1016.2 0.0
03/10:00pm 21.1 24.7 19.7 92 0.9 CALM 0 0 0 0 1016.1 1016.1 0.0
03/09:30pm 21.5 25.1 19.8 90 1.1 CALM 0 0 0 0 1016.0 1016.0 0.0
03/09:00pm 21.6 24.6 18.4 82 2.0 CALM 0 0 0 0 1015.7 1015.7 0.0
03/08:30pm 21.8 24.8 18.4 81 2.1 CALM 0 0 0 0 1015.3 1015.3 0.0
03/08:00pm 22.6 24.6 18.8 79 2.4 E 6 7 3 4 1014.8 1014.8 0.0
03/07:30pm 23.4 25.1 18.5 74 3.1 E 7 9 4 5 1014.7 1014.7 0.0
03/07:00pm 24.5 25.2 18.0 67 4.1 E 11 17 6 9 1014.2 1014.2 0.0
03/06:30pm 25.4 25.8 18.1 64 4.6 E 13 17 7 9 1014.1 1014.1 0.0
03/06:00pm 26.0 26.3 17.9 61 5.1 ESE 13 20 7 11 1013.9 1013.9 0.0
03/05:30pm 26.4 25.8 17.5 58 5.6 SE 17 20 9 11 1013.7 1013.7 0.0
03/05:00pm 26.8 26.7 17.0 55 6.1 ESE 13 22 7 12 1013.9 1013.9 0.0
03/04:30pm 27.4 26.9 17.0 53 6.5 SE 15 20 8 11 1013.8 1013.8 0.0
03/04:00pm 26.8 26.0 17.0 55 6.1 SE 17 24 9 13 1013.8 1013.8 0.0
03/03:30pm 27.6 27.6 18.0 55 6.1 SE 15 20 8 11 1013.9 1013.9 0.0
03/03:00pm 27.0 26.6 17.2 55 6.1 SE 15 24 8 13 1014.3 1014.3 0.0
03/02:30pm 27.4 27.3 17.8 55 6.1 ESE 15 24 8 13 1014.6 1014.6 0.0
03/02:00pm 27.0 26.2 17.2 55 6.1 SSE 17 22 9 12 1015.1 1015.1 0.0
03/01:30pm 27.3 27.9 19.4 62 5.1 SE 15 20 8 11 1015.3 1015.3 0.0
03/01:00pm 27.0 27.1 18.3 59 5.5 SE 15 20 8 11 1015.6 1015.6 0.0
03/12:30pm 26.9 27.2 18.7 60 5.2 SSE 15 20 8 11 1015.9 1015.9 0.0
03/12:00pm 26.7 27.1 19.1 63 4.9 SE 15 20 8 11 1016.2 1016.2 0.0
03/11:30am 26.7 27.3 18.6 61 5.2 SSE 13 19 7 10 1016.4 1016.4 0.0
03/11:00am 25.9 28.5 20.5 72 3.5 WSW 7 11 4 6 1016.5 1016.5 0.0
03/10:30am 24.8 27.0 20.5 77 2.8 WSW 9 13 5 7 1016.6 1016.6 0.0
03/10:00am 24.2 26.1 20.5 80 2.4 WSW 11 17 6 9 1016.5 1016.5 0.0
03/09:53am 24.2 25.6 20.3 79 2.5 W 13 17 7 9 1016.5 1016.5 0.0
03/09:33am 24.1 26.0 20.6 81 2.3 WSW 11 17 6 9 1016.5 1016.5 0.0
03/09:30am 24.2 26.2 20.7 81 2.3 WSW 11 17 6 9 1016.4 1016.4 0.0
03/09:00am 23.1 24.5 20.4 85 1.7 WSW 13 17 7 9 1016.3 1016.3 2.6
03/08:30am 22.2 24.4 20.5 90 1.1 W 9 13 5 7 1016.0 1016.0 2.6
03/08:00am 21.5 23.4 20.5 94 0.6 W 11 13 6 7 1015.8 1015.8 2.6
03/07:30am 20.7 23.3 20.5 99 0.1 W 7 9 4 5 1015.7 1015.7 2.6
03/07:00am 19.8 22.1 19.5 98 0.2 W 6 7 3 4 1015.3 1015.3 2.6
03/06:30am 20.0 22.2 19.7 98 0.2 W 7 9 4 5 1014.9 1014.9 2.6
03/06:00am 20.4 22.8 20.1 98 0.2 W 7 9 4 5 1014.9 1014.9 2.6
03/05:30am 20.1 22.0 19.8 98 0.2 WSW 9 11 5 6 1014.7 1014.7 2.6
03/05:00am 20.6 22.3 20.1 97 0.3 WSW 11 13 6 7 1014.6 1014.6 2.6
03/04:30am 20.7 22.7 20.0 96 0.4 W 9 9 5 5 1014.6 1014.6 2.6
03/04:00am 21.3 22.8 20.6 96 0.5 SW 13 15 7 8 1014.5 1014.5 2.6
03/03:30am 21.3 23.3 20.8 97 0.3 SW 11 15 6 8 1014.6 1014.6 2.6
03/03:00am 21.5 24.1 21.2 98 0.2 WSW 9 13 5 7 1015.0 1015.0 2.6
03/02:30am 21.6 23.4 21.1 97 0.3 WSW 13 15 7 8 1015.2 1015.2 2.6
03/02:00am 21.9 23.7 21.1 95 0.5 WSW 13 17 7 9 1015.5 1015.5 2.6
03/01:30am 22.3 24.1 21.1 93 0.8 WSW 13 17 7 9 1015.7 1015.7 2.6
03/01:00am 22.9 25.3 20.8 88 1.4 SSW 9 13 5 7 1015.8 1015.8 2.6
03/12:30am 23.8 25.1 20.1 80 2.4 SE 13 19 7 10 1016.0 1016.0 2.6
03/12:00am 23.9 25.4 20.6 82 2.1 SE 13 17 7 9 1016.1 1016.1 2.6
 
Date/Time
EDT
Temp
°C
App
Temp
°C
Dew
Point
Rel
Hum
%
Delta-T
°C
Wind Press
QNH
hPa
Press
MSL
hPa
Rain
since 9 am
mm
Dir
 
Spd
km/h
Gust
km/h
Spd
kts
Gust
kts
02/11:30pm 24.1 25.5 20.4 80 2.4 SE 13 19 7 10 1016.3 1016.3 2.6
02/11:00pm 23.9 24.5 20.2 80 2.4 SE 17 22 9 12 1016.3 1016.3 2.6
02/10:30pm 24.2 25.0 20.7 81 2.3 SE 17 24 9 13 1016.2 1016.2 2.6
02/10:00pm 23.9 25.5 20.8 83 2.0 SE 13 19 7 10 1016.2 1016.2 2.6
02/09:30pm 23.5 25.1 20.8 85 1.8 SSE 13 19 7 10 1016.0 1016.0 2.6
02/09:00pm 22.5 25.9 21.7 95 0.5 SW 6 7 3 4 1015.6 1015.6 2.6
02/08:30pm 22.8 25.7 21.8 94 0.7 SW 9 13 5 7 1015.4 1015.4 2.6
02/08:00pm 22.9 25.6 22.2 96 0.5 S 11 19 6 10 1015.0 1015.0 2.6
02/07:30pm 22.7 25.6 21.7 94 0.7 WSW 9 13 5 7 1014.7 1014.7 2.6
02/07:00pm 23.0 25.8 21.6 92 0.9 S 9 15 5 8 1014.5 1014.5 2.6
02/06:30pm 23.2 25.2 22.2 94 0.7 SSE 15 24 8 13 1014.1 1014.1 2.6
02/06:23pm 22.6 24.9 22.1 97 0.3 SSE 13 22 7 12 1014.0 1014.0 2.6
02/06:00pm 22.8 24.2 22.5 98 0.2 SW 19 28 10 15 1013.9 1013.9 2.0
02/05:55pm 22.7 24.0 22.4 98 0.2 SW 19 26 10 14 1013.8 1013.8 2.0
02/05:51pm 22.7 24.4 22.4 98 0.2 SW 17 24 9 13 1013.8 1013.8 1.8
02/05:35pm 22.8 24.2 22.5 98 0.2 SSW 19 28 10 15 1013.8 1013.8 1.4
02/05:30pm 22.9 24.2 22.4 97 0.3 SSW 19 28 10 15 1013.7 1013.7 1.2
02/05:12pm 23.1 23.3 22.1 94 0.7 SSW 24 41 13 22 1013.6 1013.6 1.0
02/05:00pm 23.6 23.5 21.5 88 1.4 SSW 24 41 13 22 1013.4 1013.4 0.4
02/04:30pm 23.9 23.8 22.2 90 1.1 SSW 26 39 14 21 1013.3 1013.3 0.4
02/04:00pm 24.0 23.5 22.1 89 1.3 SSW 28 39 15 21 1013.3 1013.3 0.4
02/03:57pm 24.1 23.2 22.2 89 1.3 S 30 41 16 22 1013.3 1013.3 0.4
02/03:43pm 23.7 23.6 22.3 92 0.9 SSW 26 35 14 19 1013.3 1013.3 0.4
02/03:30pm 24.1 24.0 21.4 85 1.8 SSW 24 41 13 22 1013.5 1013.5 0.0
02/03:00pm 26.0 26.6 22.1 79 2.6 SSW 22 41 12 22 1013.5 1013.5 0.0
02/02:30pm 26.7 26.3 22.3 77 3.0 SSW 28 39 15 21 1013.7 1013.7 0.0
02/02:00pm 27.0 26.7 22.6 77 3.0 S 28 41 15 22 1014.0 1014.0 0.0
02/01:30pm 26.6 26.4 22.7 79 2.6 S 28 41 15 22 1014.3 1014.3 0.0
02/01:00pm 27.1 27.0 22.3 75 3.2 S 26 35 14 19 1014.6 1014.6 0.0
02/12:30pm 27.4 27.1 22.6 75 3.2 S 28 39 15 21 1014.7 1014.7 0.0
02/12:00pm 27.4 27.3 22.3 73 3.4 S 26 39 14 21 1014.7 1014.7 0.0
02/11:30am 26.1 25.7 21.7 77 2.9 SSW 26 39 14 21 1014.9 1014.9 0.0
02/11:00am 26.5 26.8 22.3 78 2.8 SSW 24 35 13 19 1014.9 1014.9 0.0
02/10:30am 26.6 27.3 22.2 77 3.0 SSW 22 35 12 19 1014.8 1014.8 0.0
02/10:00am 25.5 26.0 22.6 84 2.0 SSW 24 32 13 17 1014.5 1014.5 0.0

Other Formats:

Comma delimited format used in spreadsheet applications
http://www.bom.gov.au/fwo/IDN60801/IDN60801.94596.axf

JavaScript Object Notation format (JSON) in row-major order
http://www.bom.gov.au/fwo/IDN60801/IDN60801.94596.json